Tuesday, May 31, 2016
07:48 UTC
  |  Log In   |  Register Free
Airport Search:

Mccarley Fld Airport
(U02)

Mccarley Fld Airport Diagram
No Airport Diagram Available

FAA data valid effective Mar 31 2016 - May 26 2016 (unless otherwise noted).

 
 
 
 
 
 
 
 
 
 
 
 
 
 
Current Aviation Weather for U02

Weather Summary


Current weather conditions are not available for U02 - The nearest NOAA weather station is at PIH, (21 nm SW from U02)

The most recent METAR observation for U02 was updated at: 12:53 UTC
METAR for U02 is not available. Closest METAR is for KIDA 22.0 nm SW
KIDA  (22.0 nm SW)   (most recent observation was updated at 31:06 UTC)
310653Z AUTO 00000KT 10SM CLR 06/02 A3011 RMK AO2 SLP178 T00610022 402280050

TAF for U02 is not available.
KPIH
310520Z 3106/0106 21010KT P6SM SKC FM311600 04009KT P6SM SKC FM010200 VRB05KT P6SM SKC

KIDA  (22.0 nm SW)   (most recent observation was updatred at 31:05 UTC)
310520Z 3106/0106 20008KT P6SM SKC FM311400 01010KT P6SM SKC FM010300 VRB05KT P6SM SKC


GlobalAir.com is loading additional information.
 Current Weather at PIH
59.0 F° (15.0 C°)

Southwest winds at 13.8 mph
Pressure:
30.10 in
Humidity:
29%
Wind:
Southwest at 13.8 mph
Dew Point:
27.0 F° (-2.8 C°)
Visibility:
10.00 mi
U02 NOAA Radar




Find All Airport Services Find A Hotel Find A Rental Car Find A Golf Course Find A Restaurant $100 Hamburger



Airport Weather Forecast for U02

Translated METAR for KPIH (0653 UTC)
METAR:
KPIH 310653Z AUTO 22010KT 10SM CLR 14/M02 A3010 RMK AO2 SLP157 T01441022 402280067
Conditions at:
KPIH (Pocatello Rgnl, ID) observed 0653 UTC 31 May 2016
Temperature:
14°C (57.2°F)
Dewpoint:
-2°C (28.4°F) [RH = 33.1]
Pressure:
30.1 inches Hg (1019.3 mb)
pressure at sea level is 157 in Hg
Winds:
from the SW (220 degrees) at 11.5 mph (10 knots: 5.1 m/s)
Visibility:
10 mile(s)
Ceiling:
at least 12,000 feet AGL
Clouds:
Clear below 12,000 feet AGL
Remarks:
site is un-manned
site is automated and HAS a precipitation sensor

FBO's on the Field
FBO Company Facility Photos Services Transportation Aviation Fuel Prices: Prices include tax
Catering Weather Repair Courtesy Rental Type 100LL JetA JetA+ MOGAS 8087
 
City of Blackfoot

This FBO has not yet been rated
FS:Independent
Last Updated: May-05
Login to update fuel prices
SS:
Contact City of BlackfootMore FBO Information
 
Add another FBO Facility Photos Catering Weather Repair Courtesy Rental Type 100LL JetA JetA+ MOGAS 8087
Services Transportation Aviation Fuel Prices: Prices include tax


model-print
model-print
model-print
model-print